Aeroporto :
LOGIN :

Iscrizione | Disclaimer

   EN    FR    IT 

 










Sommario :    VFR   VFR Marginale   IFR   IFR Intensivo   IFR Molto Intensivo
Visibilità : 
Base nubi : 
>= 8 km
>= 3000ft
5 / 8 km
1000 / 3000 ft
1500m / 5 km
500 / 1000 ft
800 / 1500m
200 / 500 ft
< 800m
< 200 ft
Simboli :   Temporali  Nebbia  Neve Forte  Precipitazioni Forti  Vento > 20 kt
SIGMETs :   Varie  Temporali  Ghiacco  Turbolenza  Onda orograficha  Ceneri Vulcaniche







- Altitudine del aeroporto : 242 ft
- Codice IATA : DUB


EIDW - Dublin

ULTIMO METAR :
  • 250500Z 27010KT 9999 FEW017 SCT040 04/03 Q1034 NOSIG

METARs OBSOLETI :
  • 250430Z 27012KT 9999 FEW017 BKN040 05/03 Q1033 NOSIG
  • 250400Z 27008KT 9999 FEW017 BKN040 05/03 Q1033 NOSIG
  • 250330Z 28008KT 9999 FEW017 04/03 Q1033 NOSIG
  • 250300Z 27007KT 9999 FEW017 SCT025 05/03 Q1033 NOSIG
  • 250230Z 27009KT 9999 FEW017 SCT025 05/03 Q1033 NOSIG

TAF TAF EIDW
Valido dal 25 a 00 ore il 26 a 00 ore UTC


242300Z 2500/2524 29013KT 9999 FEW017 BKN028
BECMG 2500/2503 28008KT
BECMG 2506/2509 31007KT
BECMG 2509/2511 35007KT
PROB30
TEMPO 2504/2508 5000 BR
BECMG 2513/2515 31006KT
PROB40
TEMPO 2515/2518 VRB03KT
BECMG 2518/2520 VRB03KT
BECMG 2521/2524 23005KT
Nessun NOTAM noto per questo aeroporto.



MetMap, La meteo Aeronautica in un colpo d'occhio ! - Copyright ORBIFLY Dicembre 2007 - Disclaimer

ORBIFLY MET'MAP TEAM :

Programmazione e sviluppo : Alexandra Zaïnal
Concezione e sviluppo : Baudouin d'Aumeries
Co-Programmazione e sviluppo : Marc-Olivier Méhu
Supporto tecnico e logistico : Manuel Goepfert
Aiuto per la traduzione : Arnaldo La Scala

Contatto : metmap@orbifly.com




FONTI E CREDITI :

   NOAA